N1261P KDFW-KDFW
Flight info
| Callsign | N1261P |
|---|---|
| Flight time | 0h 35m |
| Altitude | 1600 |
| Route | KDFW ZZZZ |
| Aircraft | SF90/L-V/N |
Departure
| Time | 2026-05-08 00:00 |
|---|---|
| Airport | Dallas Fort Worth International Airport (KDFW) |
Arrival
| Time | 2026-05-08 00:36 |
|---|---|
| Airport | Dallas Fort Worth International Airport (KDFW) |
| Time | Latitude | Longitude | Altitude | Speed | Heading |
|---|---|---|---|---|---|
| 2026-05-07 23:41 | 32.91508 | -97.06210 | 592 ft | 0 kts | 181° |
| 2026-05-07 23:53 | 32.91506 | -97.06210 | 592 ft | 1 kts | 236° |
| 2026-05-07 23:53 | 32.91516 | -97.06205 | 592 ft | 5 kts | 92° |
| 2026-05-07 23:53 | 32.91516 | -97.06202 | 592 ft | 0 kts | 115° |
| 2026-05-07 23:56 | 32.91520 | -97.06193 | 592 ft | 7 kts | 40° |
| 2026-05-07 23:57 | 32.91589 | -97.06116 | 592 ft | 22 kts | 78° |
| 2026-05-07 23:57 | 32.91590 | -97.05936 | 592 ft | 20 kts | 90° |
| 2026-05-07 23:57 | 32.91571 | -97.05793 | 592 ft | 16 kts | 88° |
| 2026-05-07 23:57 | 32.91574 | -97.05677 | 592 ft | 10 kts | 86° |
| 2026-05-07 23:58 | 32.91569 | -97.05606 | 592 ft | 16 kts | 94° |
| 2026-05-07 23:58 | 32.91569 | -97.05587 | 592 ft | 0 kts | 105° |
| 2026-05-07 23:58 | 32.91568 | -97.05572 | 592 ft | 12 kts | 87° |
| 2026-05-07 23:58 | 32.91557 | -97.05436 | 592 ft | 22 kts | 68° |
| 2026-05-07 23:59 | 32.91568 | -97.05234 | 592 ft | 26 kts | 90° |
| 2026-05-07 23:59 | 32.91568 | -97.05190 | 592 ft | 0 kts | 89° |
| 2026-05-07 23:59 | 32.91568 | -97.05176 | 592 ft | 11 kts | 87° |
| 2026-05-07 23:59 | 32.91499 | -97.05073 | 592 ft | 23 kts | 181° |
| 2026-05-08 00:00 | 32.91148 | -97.05073 | 592 ft | 89 kts | 176° |
| 2026-05-08 00:00 | 32.90396 | -97.05070 | 888 ft | 127 kts | 178° |
| 2026-05-08 00:00 | 32.89494 | -97.05056 | 1521 ft | 127 kts | 180° |
| 2026-05-08 00:00 | 32.88662 | -97.05093 | 1645 ft | 115 kts | 183° |
| 2026-05-08 00:01 | 32.87853 | -97.05163 | 1664 ft | 121 kts | 183° |
| 2026-05-08 00:01 | 32.87093 | -97.05029 | 1829 ft | 102 kts | 142° |
| 2026-05-08 00:01 | 32.86820 | -97.04274 | 1665 ft | 107 kts | 99° |
| 2026-05-08 00:01 | 32.86719 | -97.03423 | 1619 ft | 104 kts | 99° |
| 2026-05-08 00:02 | 32.86656 | -97.02585 | 1615 ft | 102 kts | 85° |
| 2026-05-08 00:02 | 32.87133 | -97.01971 | 1583 ft | 117 kts | 14° |
| 2026-05-08 00:02 | 32.87984 | -97.01908 | 1548 ft | 125 kts | 6° |
| 2026-05-08 00:02 | 32.88886 | -97.01786 | 1596 ft | 137 kts | 17° |
| 2026-05-08 00:03 | 32.89820 | -97.01571 | 1875 ft | 133 kts | 11° |
| 2026-05-08 00:03 | 32.90707 | -97.01425 | 1989 ft | 128 kts | 7° |
| 2026-05-08 00:03 | 32.91580 | -97.01351 | 2061 ft | 125 kts | 4° |
| 2026-05-08 00:03 | 32.92467 | -97.01323 | 2084 ft | 127 kts | 1° |
| 2026-05-08 00:04 | 32.93349 | -97.01329 | 2123 ft | 128 kts | 360° |
| 2026-05-08 00:04 | 32.94215 | -97.01496 | 2071 ft | 128 kts | 331° |
| 2026-05-08 00:04 | 32.94733 | -97.02325 | 1986 ft | 123 kts | 281° |
| 2026-05-08 00:04 | 32.94798 | -97.03299 | 1838 ft | 115 kts | 270° |
| 2026-05-08 00:05 | 32.94809 | -97.04226 | 1716 ft | 106 kts | 263° |
| 2026-05-08 00:05 | 32.94387 | -97.04872 | 1457 ft | 105 kts | 195° |
| 2026-05-08 00:05 | 32.93666 | -97.05052 | 1203 ft | 105 kts | 184° |
| 2026-05-08 00:05 | 32.92901 | -97.05066 | 951 ft | 112 kts | 179° |
| 2026-05-08 00:06 | 32.92114 | -97.05068 | 758 ft | 111 kts | 179° |
| 2026-05-08 00:06 | 32.91383 | -97.05072 | 603 ft | 98 kts | 179° |
| 2026-05-08 00:06 | 32.90783 | -97.05073 | 592 ft | 79 kts | 186° |
| 2026-05-08 00:06 | 32.90067 | -97.05072 | 895 ft | 116 kts | 181° |
| 2026-05-08 00:07 | 32.89285 | -97.04893 | 1529 ft | 123 kts | 149° |
| 2026-05-08 00:07 | 32.88853 | -97.03920 | 1826 ft | 153 kts | 96° |
| 2026-05-08 00:07 | 32.88775 | -97.02537 | 2035 ft | 174 kts | 92° |
| 2026-05-08 00:07 | 32.88821 | -97.01312 | 2098 ft | 131 kts | 83° |
| 2026-05-08 00:08 | 32.89415 | -97.00623 | 1947 ft | 127 kts | 5° |
| 2026-05-08 00:08 | 32.90249 | -97.00561 | 1883 ft | 115 kts | 1° |
| 2026-05-08 00:08 | 32.91034 | -97.00605 | 1736 ft | 113 kts | 354° |
| 2026-05-08 00:08 | 32.91785 | -97.00713 | 1711 ft | 104 kts | 354° |
| 2026-05-08 00:09 | 32.92487 | -97.00811 | 1695 ft | 100 kts | 355° |
| 2026-05-08 00:09 | 32.93202 | -97.00897 | 1700 ft | 105 kts | 355° |
| 2026-05-08 00:09 | 32.93943 | -97.00978 | 1707 ft | 108 kts | 355° |
| 2026-05-08 00:09 | 32.94706 | -97.01056 | 1715 ft | 111 kts | 356° |
| 2026-05-08 00:10 | 32.95472 | -97.01110 | 1713 ft | 106 kts | 358° |
| 2026-05-08 00:10 | 32.96176 | -97.01117 | 1701 ft | 97 kts | 2° |
| 2026-05-08 00:10 | 32.96828 | -97.01111 | 1683 ft | 90 kts | 2° |
| 2026-05-08 00:10 | 32.97432 | -97.01131 | 1643 ft | 83 kts | 335° |
| 2026-05-08 00:11 | 32.97755 | -97.01781 | 1521 ft | 97 kts | 277° |
| 2026-05-08 00:11 | 32.97761 | -97.02572 | 1471 ft | 109 kts | 265° |
| 2026-05-08 00:11 | 32.97696 | -97.03639 | 1529 ft | 147 kts | 262° |
| 2026-05-08 00:11 | 32.97219 | -97.04648 | 1475 ft | 143 kts | 217° |
| 2026-05-08 00:12 | 32.96266 | -97.05070 | 1306 ft | 152 kts | 187° |
| 2026-05-08 00:12 | 32.95170 | -97.05092 | 1271 ft | 138 kts | 176° |
| 2026-05-08 00:12 | 32.94286 | -97.05057 | 1187 ft | 116 kts | 181° |
| 2026-05-08 00:12 | 32.93515 | -97.05060 | 946 ft | 111 kts | 182° |
| 2026-05-08 00:13 | 32.92727 | -97.05058 | 816 ft | 107 kts | 185° |
| 2026-05-08 00:13 | 32.91912 | -97.05083 | 722 ft | 122 kts | 182° |
| 2026-05-08 00:13 | 32.91197 | -97.05069 | 598 ft | 84 kts | 184° |
| 2026-05-08 00:13 | 32.90700 | -97.05076 | 592 ft | 77 kts | 184° |
| 2026-05-08 00:14 | 32.89981 | -97.05089 | 845 ft | 117 kts | 186° |
| 2026-05-08 00:14 | 32.89221 | -97.05154 | 1621 ft | 108 kts | 161° |
| 2026-05-08 00:14 | 32.88690 | -97.04405 | 1846 ft | 133 kts | 94° |
| 2026-05-08 00:14 | 32.88511 | -97.03452 | 1773 ft | 114 kts | 120° |
| 2026-05-08 00:15 | 32.88373 | -97.02520 | 1669 ft | 122 kts | 95° |
| 2026-05-08 00:15 | 32.88358 | -97.01518 | 1675 ft | 120 kts | 91° |
| 2026-05-08 00:15 | 32.88496 | -97.00600 | 1546 ft | 113 kts | 41° |
| 2026-05-08 00:15 | 32.89256 | -97.00413 | 1480 ft | 109 kts | 4° |
| 2026-05-08 00:16 | 32.90034 | -97.00350 | 1661 ft | 114 kts | 6° |
| 2026-05-08 00:16 | 32.90817 | -97.00272 | 1715 ft | 116 kts | 4° |
| 2026-05-08 00:16 | 32.91626 | -97.00208 | 1739 ft | 122 kts | 5° |
| 2026-05-08 00:16 | 32.92429 | -97.00416 | 1789 ft | 122 kts | 313° |
| 2026-05-08 00:17 | 32.92514 | -97.01375 | 1704 ft | 123 kts | 254° |
| 2026-05-08 00:17 | 32.92370 | -97.02326 | 1540 ft | 113 kts | 259° |
| 2026-05-08 00:17 | 32.92273 | -97.03251 | 1284 ft | 113 kts | 261° |
| 2026-05-08 00:17 | 32.92186 | -97.04152 | 1040 ft | 105 kts | 255° |
| 2026-05-08 00:18 | 32.91876 | -97.04914 | 775 ft | 100 kts | 216° |
| 2026-05-08 00:18 | 32.91244 | -97.05073 | 614 ft | 88 kts | 178° |
| 2026-05-08 00:18 | 32.90695 | -97.05074 | 594 ft | 72 kts | 180° |
| 2026-05-08 00:18 | 32.90221 | -97.05076 | 592 ft | 87 kts | 183° |
| 2026-05-08 00:19 | 32.89435 | -97.05073 | 917 ft | 106 kts | 183° |
| 2026-05-08 00:19 | 32.88708 | -97.05116 | 1649 ft | 121 kts | 166° |
| 2026-05-08 00:19 | 32.88105 | -97.04216 | 1942 ft | 174 kts | 109° |
| 2026-05-08 00:19 | 32.87805 | -97.02741 | 2078 ft | 176 kts | 101° |
| 2026-05-08 00:20 | 32.87970 | -97.01455 | 2145 ft | 153 kts | 53° |
| 2026-05-08 00:20 | 32.88887 | -97.00996 | 2145 ft | 133 kts | 10° |
| 2026-05-08 00:20 | 32.89735 | -97.00860 | 2021 ft | 113 kts | 5° |
| 2026-05-08 00:20 | 32.90469 | -97.00808 | 1940 ft | 110 kts | 5° |
| 2026-05-08 00:21 | 32.91326 | -97.00727 | 1830 ft | 155 kts | 6° |
| 2026-05-08 00:21 | 32.92654 | -97.00533 | 1691 ft | 226 kts | 7° |
| 2026-05-08 00:21 | 32.94006 | -97.01027 | 1978 ft | 175 kts | 342° |
| 2026-05-08 00:21 | 32.94625 | -97.02103 | 1854 ft | 150 kts | 289° |
| 2026-05-08 00:22 | 32.94803 | -97.03302 | 1706 ft | 143 kts | 270° |
| 2026-05-08 00:22 | 32.94580 | -97.04389 | 1546 ft | 128 kts | 230° |
| 2026-05-08 00:22 | 32.93859 | -97.04812 | 1354 ft | 113 kts | 195° |
| 2026-05-08 00:22 | 32.93156 | -97.04974 | 1027 ft | 95 kts | 185° |
| 2026-05-08 00:23 | 32.92524 | -97.05035 | 789 ft | 87 kts | 186° |
| 2026-05-08 00:23 | 32.91940 | -97.05059 | 654 ft | 95 kts | 184° |
| 2026-05-08 00:23 | 32.91364 | -97.05076 | 597 ft | 68 kts | 180° |
| 2026-05-08 00:23 | 32.91000 | -97.05077 | 592 ft | 64 kts | 178° |
| 2026-05-08 00:24 | 32.90347 | -97.05080 | 859 ft | 106 kts | 180° |
| 2026-05-08 00:24 | 32.89640 | -97.05087 | 1655 ft | 93 kts | 179° |
| 2026-05-08 00:24 | 32.88980 | -97.05143 | 2310 ft | 92 kts | 184° |
| 2026-05-08 00:24 | 32.88312 | -97.05223 | 2883 ft | 99 kts | 188° |
| 2026-05-08 00:25 | 32.87746 | -97.05724 | 3491 ft | 111 kts | 232° |
| 2026-05-08 00:25 | 32.87302 | -97.06522 | 4067 ft | 125 kts | 236° |
| 2026-05-08 00:25 | 32.86875 | -97.07482 | 4827 ft | 135 kts | 258° |
| 2026-05-08 00:25 | 32.86842 | -97.08554 | 5806 ft | 124 kts | 272° |
| 2026-05-08 00:26 | 32.86910 | -97.09537 | 6846 ft | 102 kts | 274° |
| 2026-05-08 00:26 | 32.87004 | -97.10253 | 7792 ft | 90 kts | 275° |
| 2026-05-08 00:26 | 32.87164 | -97.11155 | 8393 ft | 98 kts | 281° |
| 2026-05-08 00:26 | 32.87392 | -97.11844 | 9285 ft | 92 kts | 287° |
| 2026-05-08 00:27 | 32.87768 | -97.12492 | 9972 ft | 99 kts | 306° |
| 2026-05-08 00:27 | 32.88374 | -97.13126 | 10339 ft | 132 kts | 309° |
| 2026-05-08 00:27 | 32.89184 | -97.13593 | 11230 ft | 134 kts | 342° |
| 2026-05-08 00:27 | 32.90066 | -97.13451 | 11942 ft | 101 kts | 0° |
| 2026-05-08 00:28 | 32.90817 | -97.13159 | 11690 ft | 145 kts | 5° |
| 2026-05-08 00:28 | 32.91986 | -97.12683 | 11933 ft | 158 kts | 14° |
| 2026-05-08 00:28 | 32.92648 | -97.12170 | 12583 ft | 109 kts | 24° |
| 2026-05-08 00:28 | 32.93307 | -97.11712 | 11410 ft | 48 kts | 319° |
| 2026-05-08 00:29 | 32.93408 | -97.09852 | 9504 ft | 287 kts | 89° |
| 2026-05-08 00:29 | 32.93514 | -97.07531 | 10379 ft | 197 kts | 87° |
| 2026-05-08 00:29 | 32.93510 | -97.06564 | 13222 ft | 75 kts | 99° |
| 2026-05-08 00:29 | 32.93557 | -97.05813 | 11417 ft | 234 kts | 73° |
| 2026-05-08 00:30 | 32.94037 | -97.04105 | 11659 ft | 231 kts | 61° |
| 2026-05-08 00:30 | 32.94230 | -97.02610 | 10258 ft | 246 kts | 109° |
| 2026-05-08 00:30 | 32.93761 | -97.00671 | 10227 ft | 235 kts | 113° |
| 2026-05-08 00:30 | 32.92681 | -96.99559 | 8219 ft | 214 kts | 180° |
| 2026-05-08 00:31 | 32.91213 | -96.99806 | 6392 ft | 174 kts | 198° |
| 2026-05-08 00:31 | 32.91080 | -96.99691 | 3925 ft | 8 kts | 178° |
| 2026-05-08 00:31 | 32.91684 | -96.98731 | 2657 ft | 185 kts | 56° |
| 2026-05-08 00:31 | 32.92375 | -96.97577 | 2557 ft | 162 kts | 57° |
| 2026-05-08 00:32 | 32.93118 | -96.96668 | 2406 ft | 158 kts | 32° |
| 2026-05-08 00:32 | 32.94220 | -96.96547 | 2279 ft | 171 kts | 344° |
| 2026-05-08 00:32 | 32.95170 | -96.97286 | 2400 ft | 132 kts | 295° |
| 2026-05-08 00:32 | 32.95563 | -96.98230 | 2332 ft | 119 kts | 286° |
| 2026-05-08 00:33 | 32.95548 | -96.99116 | 2164 ft | 114 kts | 258° |
| 2026-05-08 00:33 | 32.95383 | -97.00140 | 2081 ft | 117 kts | 255° |
| 2026-05-08 00:33 | 32.95195 | -97.01049 | 1755 ft | 102 kts | 253° |
| 2026-05-08 00:33 | 32.95055 | -97.01903 | 1621 ft | 110 kts | 257° |
| 2026-05-08 00:34 | 32.94965 | -97.02770 | 1652 ft | 111 kts | 263° |
| 2026-05-08 00:34 | 32.94908 | -97.03705 | 1634 ft | 105 kts | 261° |
| 2026-05-08 00:34 | 32.94606 | -97.04427 | 1396 ft | 105 kts | 208° |
| 2026-05-08 00:34 | 32.93953 | -97.04779 | 1124 ft | 101 kts | 199° |
| 2026-05-08 00:35 | 32.93308 | -97.04976 | 956 ft | 88 kts | 188° |
| 2026-05-08 00:35 | 32.92713 | -97.05049 | 777 ft | 84 kts | 181° |
| 2026-05-08 00:35 | 32.92160 | -97.05067 | 658 ft | 75 kts | 181° |
| 2026-05-08 00:35 | 32.91640 | -97.05069 | 622 ft | 75 kts | 179° |
| 2026-05-08 00:36 | 32.91239 | -97.05075 | 592 ft | 27 kts | 179° |
| 2026-05-08 00:36 | 32.91075 | -97.05084 | 592 ft | 18 kts | 191° |
| 2026-05-08 00:36 | 32.91015 | -97.05170 | 592 ft | 12 kts | 269° |
| 2026-05-08 00:36 | 32.91009 | -97.05283 | 592 ft | 27 kts | 266° |
| 2026-05-08 00:37 | 32.91013 | -97.05356 | 592 ft | 1 kts | 278° |
| 2026-05-08 00:37 | 32.91024 | -97.05421 | 592 ft | 28 kts | 264° |
| 2026-05-08 00:37 | 32.90997 | -97.05722 | 592 ft | 29 kts | 309° |
| 2026-05-08 00:38 | 32.91307 | -97.05960 | 592 ft | 5 kts | 273° |